Time;durP1;ratioP1;P1;durP2;ratioP2;P2;SDS_P1;SDS_P2;PMS_P1;PMS_P2;Temp;Humidity;BMP_temperature;BMP_pressure;BME280_temperature;BME280_humidity;BME280_pressure;Samples;Min_cycle;Max_cycle;Signal;HPM_P1;HPM_P2
2023/04/03 00:02:32;;;;;;;;;5.60;5.00;;;;;8.80;55.69;99048.16;6084424;28;97688;-63
2023/04/03 00:05:35;;;;;;;;;8.75;8.00;;;;;8.79;55.47;99044.66;6064020;28;96908;-63
2023/04/03 00:08:40;;;;;;;;;7.00;7.00;;;;;8.76;55.47;99047.75;6065219;28;98886;-63
2023/04/03 00:11:44;;;;;;;;;6.00;6.00;;;;;8.62;55.55;99028.09;6084379;28;96209;-62
2023/04/03 00:14:48;;;;;;;;;8.00;8.00;;;;;8.73;55.98;99037.41;6085310;28;96816;-63
2023/04/03 00:17:51;;;;;;;;;6.33;6.33;;;;;8.76;55.62;99046.91;6079806;28;96334;-63
2023/04/03 00:20:55;;;;;;;;;7.00;6.80;;;;;8.74;55.54;99036.41;6082014;28;98401;-63
2023/04/03 00:23:58;;;;;;;;;6.00;6.00;;;;;8.69;55.56;99042.38;6082026;28;96683;-63
2023/04/03 00:27:03;;;;;;;;;8.00;6.00;;;;;8.66;55.63;99050.00;6084824;28;96525;-64
2023/04/03 00:30:09;;;;;;;;;5.00;5.00;;;;;8.62;55.60;99054.97;6065396;28;96684;-63
2023/04/03 00:33:14;;;;;;;;;4.00;3.00;;;;;8.53;56.11;99050.00;6075336;28;97682;-63
2023/04/03 00:36:17;;;;;;;;;8.00;8.00;;;;;8.54;56.38;99059.72;6083827;28;96378;-64
2023/04/03 00:39:21;;;;;;;;;8.00;8.00;;;;;8.50;56.25;99061.19;6068694;28;96347;-63
2023/04/03 00:42:26;;;;;;;;;8.20;6.00;;;;;8.57;56.26;99056.63;6083594;28;96428;-63
2023/04/03 00:45:35;;;;;;;;;5.75;5.75;;;;;8.37;56.26;99061.97;6078886;28;98557;-63
2023/04/03 00:48:42;;;;;;;;;8.80;8.40;;;;;8.33;56.37;99071.47;6067903;28;96476;-62
2023/04/03 00:51:46;;;;;;;;;7.60;7.00;;;;;8.40;56.24;99066.13;6065853;28;96646;-63
2023/04/03 00:54:53;;;;;;;;;6.80;6.20;;;;;8.37;56.34;99070.03;6099013;28;96409;-64
2023/04/03 00:57:58;;;;;;;;;5.00;5.00;;;;;8.35;56.31;99073.94;6048006;28;98113;-63
2023/04/03 01:01:06;;;;;;;;;6.00;6.00;;;;;8.27;55.76;99058.78;6032898;28;97000;-63
2023/04/03 01:04:28;;;;;;;;;7.00;6.00;;;;;8.27;56.25;99073.06;6072888;28;96657;-64
2023/04/03 01:07:33;;;;;;;;;8.00;7.00;;;;;8.29;56.02;99080.94;6076443;28;96233;-63
2023/04/03 01:10:37;;;;;;;;;5.20;5.20;;;;;8.23;56.38;99081.72;6074915;28;96777;-63
2023/04/03 01:13:42;;;;;;;;;4.25;4.25;;;;;8.26;56.38;99082.13;6076642;28;96257;-63
2023/04/03 01:16:53;;;;;;;;;5.00;5.00;;;;;8.20;56.40;99079.47;6077705;28;96807;-62
2023/04/03 01:20:14;;;;;;;;;8.00;7.67;;;;;8.11;56.50;99072.63;6063831;28;96704;-62
2023/04/03 01:23:27;;;;;;;;;8.00;7.80;;;;;8.10;56.65;99081.69;6080805;28;96670;-63
2023/04/03 01:26:30;;;;;;;;;7.80;7.80;;;;;8.18;56.48;99100.31;6077756;28;96434;-63
2023/04/03 01:29:36;;;;;;;;;6.00;6.00;;;;;8.12;56.27;99085.81;6061466;28;96238;-63
2023/04/03 01:32:40;;;;;;;;;8.80;8.80;;;;;8.11;56.27;99096.78;6059977;28;96811;-63
2023/04/03 01:35:44;;;;;;;;;6.00;6.00;;;;;8.04;56.38;99094.06;6076320;28;98362;-63
2023/04/03 01:38:48;;;;;;;;;7.00;7.00;;;;;7.91;56.35;99080.59;6078272;28;96230;-63
2023/04/03 01:41:52;;;;;;;;;5.40;5.40;;;;;8.01;56.66;99099.00;6080387;28;96203;-63
2023/04/03 01:45:06;;;;;;;;;6.00;6.00;;;;;7.97;56.76;99098.56;6076896;28;96232;-63
2023/04/03 01:48:11;;;;;;;;;4.80;4.20;;;;;7.96;56.90;99101.47;6079623;28;97107;-63
2023/04/03 01:51:14;;;;;;;;;6.00;6.00;;;;;8.00;56.75;99110.78;6085843;28;96603;-62
2023/04/03 01:54:17;;;;;;;;;6.00;6.00;;;;;8.02;56.58;99103.31;6086638;28;96285;-63
2023/04/03 01:57:21;;;;;;;;;6.00;5.60;;;;;8.09;56.49;99106.88;6084599;28;96201;-63
2023/04/03 02:00:24;;;;;;;;;5.00;5.00;;;;;8.14;56.42;99104.41;6067726;28;96697;-63
2023/04/03 02:03:30;;;;;;;;;6.00;6.00;;;;;8.18;56.24;99116.41;6087097;28;96161;-64
2023/04/03 02:06:34;;;;;;;;;6.50;6.50;;;;;8.17;56.02;99107.53;6083077;28;96434;-63
2023/04/03 02:09:38;;;;;;;;;5.60;5.60;;;;;8.20;56.15;99111.69;6081132;28;96167;-63
2023/04/03 02:12:41;;;;;;;;;4.00;4.00;;;;;8.21;56.10;99110.63;6081196;28;96734;-64
2023/04/03 02:15:45;;;;;;;;;7.00;6.20;;;;;8.19;56.09;99110.03;6076201;28;96462;-63
2023/04/03 02:18:53;;;;;;;;;8.00;8.00;;;;;8.14;56.07;99116.00;6077190;28;96287;-63
2023/04/03 02:21:56;;;;;;;;;6.40;6.40;;;;;8.15;56.33;99112.28;6066512;28;96740;-62
2023/04/03 02:25:00;;;;;;;;;7.00;6.60;;;;;8.07;56.19;99112.44;6057061;28;98467;-64
2023/04/03 02:28:03;;;;;;;;;5.50;5.50;;;;;8.08;56.52;99118.63;6065238;28;98815;-64
2023/04/03 02:31:07;;;;;;;;;5.00;5.00;;;;;8.10;56.36;99116.59;6082056;28;96478;-64
2023/04/03 02:34:12;;;;;;;;;5.00;5.00;;;;;8.09;56.54;99120.31;6066544;28;97061;-63
2023/04/03 02:37:16;;;;;;;;;6.00;6.00;;;;;8.00;55.96;99113.44;6063933;28;98066;-63
2023/04/03 02:40:22;;;;;;;;;5.80;5.80;;;;;8.12;56.22;99120.72;6066411;28;96818;-63
2023/04/03 02:43:26;;;;;;;;;3.60;3.60;;;;;8.14;56.02;99123.22;6054559;28;96339;-63
2023/04/03 02:46:29;;;;;;;;;6.00;6.00;;;;;8.16;56.22;99126.53;6064464;28;98347;-63
2023/04/03 02:49:34;;;;;;;;;6.00;6.00;;;;;8.11;56.16;99127.13;6073534;28;96566;-64
2023/04/03 02:52:38;;;;;;;;;6.00;5.50;;;;;8.13;56.01;99133.13;6080797;28;96306;-64
2023/04/03 02:55:41;;;;;;;;;6.00;5.00;;;;;7.94;56.09;99106.19;6084150;28;96132;-64
2023/04/03 02:58:44;;;;;;;;;7.00;7.00;;;;;8.07;56.00;99123.19;6066583;28;96268;-63
2023/04/03 03:01:48;;;;;;;;;6.60;6.00;;;;;8.11;56.26;99139.75;6076753;28;96928;-64
2023/04/03 03:04:53;;;;;;;;;7.50;7.50;;;;;8.08;56.33;99138.28;6081911;28;96224;-64
2023/04/03 03:07:57;;;;;;;;;3.00;3.00;;;;;8.02;56.26;99138.22;6079664;28;97535;-64
2023/04/03 03:11:01;;;;;;;;;5.00;5.00;;;;;8.03;56.01;99140.72;6076922;28;96291;-64
2023/04/03 03:14:04;;;;;;;;;4.60;4.00;;;;;7.99;55.73;99134.09;6052203;28;98347;-63
2023/04/03 03:17:08;;;;;;;;;7.60;6.60;;;;;7.94;55.56;99139.25;6069460;28;96703;-64
2023/04/03 03:20:15;;;;;;;;;6.60;6.00;;;;;7.83;55.93;99127.19;6081219;28;96822;-64
2023/04/03 03:23:18;;;;;;;;;5.00;5.00;;;;;7.86;56.04;99134.03;6065415;28;96250;-64
2023/04/03 03:26:21;;;;;;;;;4.80;4.00;;;;;7.88;56.18;99139.19;6081620;28;97768;-64
2023/04/03 03:29:25;;;;;;;;;5.00;5.00;;;;;7.94;56.08;99141.91;6082681;28;96225;-64
2023/04/03 03:32:28;;;;;;;;;5.50;5.50;;;;;7.95;55.78;99134.69;6073945;28;97750;-65
2023/04/03 03:35:33;;;;;;;;;7.00;7.00;;;;;7.97;55.71;99132.63;6089892;28;96616;-64
2023/04/03 03:38:38;;;;;;;;;8.00;8.00;;;;;7.96;55.59;99149.78;6034168;28;96250;-64
2023/04/03 03:41:41;;;;;;;;;6.80;6.00;;;;;8.02;55.49;99141.75;6030315;29;98428;-64
2023/04/03 03:44:45;;;;;;;;;5.00;5.00;;;;;7.94;55.62;99141.09;6046025;28;96535;-64
2023/04/03 03:47:48;;;;;;;;;5.00;5.00;;;;;7.94;55.61;99146.47;6023184;28;96335;-64
2023/04/03 03:50:53;;;;;;;;;9.00;8.60;;;;;7.86;55.79;99150.16;6044522;28;96839;-63
2023/04/03 03:54:00;;;;;;;;;5.40;4.60;;;;;7.84;55.84;99149.50;6046180;28;96308;-62
2023/04/03 03:57:04;;;;;;;;;8.80;8.20;;;;;7.87;55.78;99149.09;6027087;29;98104;-61
2023/04/03 04:00:08;;;;;;;;;9.00;9.00;;;;;7.77;56.00;99157.50;6027128;28;98837;-62
2023/04/03 04:03:17;;;;;;;;;6.00;6.00;;;;;7.63;56.06;99152.25;6020709;29;97538;-62
2023/04/03 04:06:24;;;;;;;;;7.00;7.00;;;;;7.69;56.08;99163.03;6010834;28;97945;-63
2023/04/03 04:09:32;;;;;;;;;7.00;6.25;;;;;7.70;55.43;99158.50;6045429;28;96162;-63
2023/04/03 04:12:36;;;;;;;;;7.00;6.00;;;;;7.60;55.50;99174.13;6043831;28;96321;-63
2023/04/03 04:15:40;;;;;;;;;5.00;4.67;;;;;7.61;56.04;99181.16;6033034;28;98340;-63
2023/04/03 04:18:43;;;;;;;;;3.00;2.60;;;;;7.63;55.91;99166.50;6040661;28;97914;-63
2023/04/03 04:21:48;;;;;;;;;3.00;3.00;;;;;7.69;55.92;99171.09;6042850;28;96836;-62
2023/04/03 04:24:52;;;;;;;;;6.80;6.80;;;;;7.70;55.87;99172.75;6042682;28;96714;-63
2023/04/03 04:27:55;;;;;;;;;5.20;5.20;;;;;7.76;56.15;99174.66;6036691;28;97037;-63
2023/04/03 04:30:58;;;;;;;;;7.00;6.00;;;;;7.79;55.74;99176.09;6018240;28;98865;-63
2023/04/03 04:34:03;;;;;;;;;6.00;5.80;;;;;7.82;55.33;99175.69;6040396;28;96940;-63
2023/04/03 04:37:08;;;;;;;;;4.00;4.00;;;;;7.84;55.06;99179.03;6043084;28;96421;-64
2023/04/03 04:40:12;;;;;;;;;5.60;5.60;;;;;7.82;55.08;99189.13;6062941;28;97800;-63
2023/04/03 04:43:18;;;;;;;;;8.40;8.00;;;;;7.73;54.89;99184.94;6063452;28;96660;-63
2023/04/03 04:46:24;;;;;;;;;6.80;6.00;;;;;7.69;55.04;99183.69;6034614;28;98964;-63
2023/04/03 04:49:32;;;;;;;;;4.50;4.50;;;;;7.68;55.30;99192.75;6053075;28;96790;-63
2023/04/03 04:52:38;;;;;;;;;7.00;7.00;;;;;7.66;54.62;99190.28;6071929;28;96204;-64
2023/04/03 04:55:43;;;;;;;;;6.60;6.00;;;;;7.65;54.68;99190.47;6066534;28;96198;-63
2023/04/03 04:58:47;;;;;;;;;6.40;6.00;;;;;7.67;54.78;99199.16;6069144;28;96760;-63
2023/04/03 05:01:52;;;;;;;;;7.00;6.00;;;;;7.67;54.68;99199.16;6057269;28;96195;-62
2023/04/03 05:04:56;;;;;;;;;3.00;3.00;;;;;7.66;54.77;99201.00;6054425;28;96647;-63
2023/04/03 05:08:05;;;;;;;;;7.00;7.00;;;;;7.74;54.61;99211.59;6052674;28;96643;-62
2023/04/03 05:11:08;;;;;;;;;7.25;7.25;;;;;7.46;54.70;99177.72;6050480;28;96232;-63
2023/04/03 05:14:14;;;;;;;;;5.75;5.75;;;;;7.70;54.47;99207.63;6066637;28;97025;-63
2023/04/03 05:17:18;;;;;;;;;7.00;6.00;;;;;7.74;54.26;99210.75;6070755;28;96920;-62
2023/04/03 05:20:25;;;;;;;;;3.00;3.00;;;;;7.82;54.25;99211.44;6035534;28;96810;-63
2023/04/03 05:23:31;;;;;;;;;5.00;4.00;;;;;7.86;54.43;99211.88;6060422;28;96574;-63
2023/04/03 05:26:37;;;;;;;;;6.00;6.00;;;;;7.91;54.20;99208.63;6082964;28;98673;-63
2023/04/03 05:29:43;;;;;;;;;6.20;6.20;;;;;7.98;53.77;99214.84;6081635;28;96424;-63
2023/04/03 05:32:51;;;;;;;;;5.00;4.60;;;;;8.02;53.96;99224.16;6064421;28;98441;-63
2023/04/03 05:36:04;;;;;;;;;7.00;7.00;;;;;8.00;54.07;99226.22;6075961;28;96473;-62
2023/04/03 05:39:13;;;;;;;;;6.80;5.80;;;;;7.91;54.25;99219.34;6061687;28;97419;-63
2023/04/03 05:42:19;;;;;;;;;6.40;6.40;;;;;7.94;54.62;99230.50;6040976;28;97219;-63
2023/04/03 05:45:22;;;;;;;;;6.20;5.20;;;;;7.82;54.49;99230.22;6061993;28;96782;-63
2023/04/03 05:48:27;;;;;;;;;7.00;7.00;;;;;7.87;54.23;99228.81;6083692;28;96292;-62
2023/04/03 05:51:34;;;;;;;;;6.00;6.00;;;;;7.88;53.83;99231.28;6067212;28;96599;-63
2023/04/03 05:54:48;;;;;;;;;6.00;5.25;;;;;7.79;52.20;99238.66;6079164;28;96365;-63
2023/04/03 05:57:56;;;;;;;;;5.00;5.00;;;;;7.71;52.56;99243.34;6073832;28;96328;-64
2023/04/03 06:01:00;;;;;;;;;7.00;6.00;;;;;7.74;52.50;99232.22;6095898;28;96085;-63
2023/04/03 06:04:04;;;;;;;;;8.00;8.00;;;;;7.81;52.66;99244.69;6033100;28;96837;-62
2023/04/03 06:07:12;;;;;;;;;6.75;6.00;;;;;7.78;52.70;99254.97;6050540;28;96308;-62
2023/04/03 06:10:17;;;;;;;;;5.75;5.50;;;;;7.68;53.09;99252.63;6087449;28;96356;-62
2023/04/03 06:13:21;;;;;;;;;5.00;5.00;;;;;7.75;52.79;99256.19;6074285;28;96393;-63
2023/04/03 06:16:26;;;;;;;;;5.60;5.60;;;;;7.73;52.87;99263.59;6046764;28;96349;-63
2023/04/03 06:19:30;;;;;;;;;5.60;4.60;;;;;7.72;52.44;99264.63;6042667;28;96328;-63
2023/04/03 06:22:34;;;;;;;;;6.00;5.00;;;;;7.75;52.82;99264.25;6041082;28;96388;-63
2023/04/03 06:25:39;;;;;;;;;6.00;6.00;;;;;7.69;52.43;99270.38;6045067;28;96687;-63
2023/04/03 06:28:42;;;;;;;;;6.00;5.00;;;;;7.77;52.90;99270.22;6045678;28;97592;-63
2023/04/03 06:31:46;;;;;;;;;7.60;7.60;;;;;7.84;52.51;99271.13;6075223;28;97359;-63
2023/04/03 06:34:50;;;;;;;;;7.00;6.40;;;;;7.93;51.57;99273.66;6068670;28;96983;-64
2023/04/03 06:37:53;;;;;;;;;6.00;6.00;;;;;7.98;52.21;99265.84;6061769;28;98382;-63
2023/04/03 06:40:59;;;;;;;;;5.40;5.40;;;;;8.09;51.82;99282.25;6054430;28;96670;-64
2023/04/03 06:44:03;;;;;;;;;5.00;5.00;;;;;8.19;51.28;99284.59;6068730;28;96135;-63
2023/04/03 06:47:08;;;;;;;;;5.00;5.00;;;;;8.23;49.73;99291.22;6064470;28;96808;-63
2023/04/03 06:50:14;;;;;;;;;5.00;4.80;;;;;8.20;49.49;99283.56;6066423;28;96469;-63
2023/04/03 06:53:18;;;;;;;;;4.00;4.00;;;;;8.34;49.72;99298.78;6050818;28;96607;-63
2023/04/03 06:56:24;;;;;;;;;5.00;4.50;;;;;8.39;48.34;99290.13;6069318;28;96522;-63
2023/04/03 06:59:28;;;;;;;;;3.00;2.75;;;;;8.44;48.05;99290.34;6069238;28;96827;-63
2023/04/03 07:02:32;;;;;;;;;6.00;6.00;;;;;8.46;48.18;99290.97;6051881;28;96803;-63
2023/04/03 07:05:36;;;;;;;;;6.80;6.00;;;;;8.62;47.96;99296.88;6049124;28;98380;-63
2023/04/03 07:08:40;;;;;;;;;7.40;7.00;;;;;8.69;47.35;99295.06;6038938;28;97233;-63
2023/04/03 07:11:45;;;;;;;;;5.00;5.00;;;;;8.80;46.01;99296.31;6065945;28;96960;-63
2023/04/03 07:14:48;;;;;;;;;7.00;7.00;;;;;8.83;46.38;99305.84;6079057;28;96745;-63
2023/04/03 07:17:52;;;;;;;;;6.60;6.20;;;;;8.73;45.52;99289.25;6063502;28;96657;-63
2023/04/03 07:20:55;;;;;;;;;6.20;5.80;;;;;8.77;45.82;99315.53;6079080;28;96525;-63
2023/04/03 07:23:58;;;;;;;;;7.00;6.75;;;;;8.74;45.48;99315.94;6079764;28;96230;-64
2023/04/03 07:27:04;;;;;;;;;5.60;5.60;;;;;8.71;45.10;99316.34;6069941;28;96848;-63
2023/04/03 07:30:09;;;;;;;;;6.00;5.00;;;;;8.75;44.72;99322.16;6068756;28;96385;-63
2023/04/03 07:33:12;;;;;;;;;6.20;6.20;;;;;8.67;43.75;99318.59;6066763;28;98724;-64
2023/04/03 07:36:19;;;;;;;;;6.00;6.00;;;;;8.83;44.52;99333.56;6068849;28;96366;-63
2023/04/03 07:39:22;;;;;;;;;6.00;6.00;;;;;8.90;43.84;99328.22;6060893;28;96643;-63
2023/04/03 07:42:27;;;;;;;;;4.25;4.00;;;;;9.07;43.69;99334.91;6078371;28;96457;-63
2023/04/03 07:45:30;;;;;;;;;3.40;3.40;;;;;9.42;44.40;99338.34;6078718;28;96627;-63
2023/04/03 07:48:35;;;;;;;;;5.80;5.00;;;;;9.87;42.37;99337.56;6076160;28;96407;-63
2023/04/03 07:51:39;;;;;;;;;4.00;3.80;;;;;10.44;41.91;99346.94;6052180;28;96737;-63
2023/04/03 07:54:43;;;;;;;;;7.00;7.00;;;;;10.84;41.03;99348.50;6068193;28;96135;-63
2023/04/03 07:57:47;;;;;;;;;3.00;3.00;;;;;11.13;39.80;99352.53;6068728;28;96924;-63
2023/04/03 08:00:53;;;;;;;;;8.00;7.40;;;;;11.16;38.85;99335.91;6071662;28;96345;-63
2023/04/03 08:03:57;;;;;;;;;6.00;5.60;;;;;11.51;38.88;99336.38;6091550;28;96452;-63
2023/04/03 08:07:01;;;;;;;;;5.50;5.50;;;;;11.75;38.41;99356.38;6064703;28;97134;-63
2023/04/03 08:10:05;;;;;;;;;6.00;6.00;;;;;11.89;38.15;99351.72;6043206;28;96408;-63
2023/04/03 08:13:10;;;;;;;;;6.00;5.00;;;;;12.07;37.32;99343.72;6027026;28;97047;-63
2023/04/03 08:16:17;;;;;;;;;7.00;7.00;;;;;12.23;38.23;99355.81;6044133;28;96890;-63
2023/04/03 08:19:20;;;;;;;;;6.00;6.00;;;;;12.06;36.83;99353.69;6027171;28;97041;-63
2023/04/03 08:22:29;;;;;;;;;7.75;7.00;;;;;11.86;36.56;99350.31;6043892;28;96484;-63
2023/04/03 08:25:32;;;;;;;;;5.40;5.40;;;;;11.82;37.57;99359.91;6042375;28;96829;-63
2023/04/03 08:28:37;;;;;;;;;3.00;3.00;;;;;11.75;37.70;99358.25;6024497;28;99597;-63
2023/04/03 08:31:40;;;;;;;;;5.00;4.60;;;;;11.93;38.41;99359.16;6055991;28;97620;-63
2023/04/03 08:34:43;;;;;;;;;5.00;4.00;;;;;11.86;37.98;99360.28;6067371;28;96409;-63
2023/04/03 08:37:47;;;;;;;;;4.00;4.00;;;;;11.67;37.64;99367.44;6049614;28;97489;-63
2023/04/03 08:41:01;;;;;;;;;4.00;4.00;;;;;11.20;37.43;99363.28;6067762;28;96854;-63
2023/04/03 08:44:16;;;;;;;;;4.40;4.40;;;;;10.76;37.86;99364.06;6050073;28;98549;-63
2023/04/03 08:47:25;;;;;;;;;6.00;6.00;;;;;10.38;39.60;99378.22;6067626;28;96283;-63
2023/04/03 08:50:34;;;;;;;;;4.00;4.00;;;;;10.28;39.66;99377.00;6067545;28;96293;-63
2023/04/03 08:53:43;;;;;;;;;3.60;3.00;;;;;10.22;40.44;99380.50;6067128;28;96385;-63
2023/04/03 08:56:46;;;;;;;;;6.00;5.40;;;;;10.34;39.55;99379.69;6067734;28;96415;-63
2023/04/03 08:59:51;;;;;;;;;4.00;4.00;;;;;10.41;39.91;99379.66;6049540;28;98356;-64
2023/04/03 09:02:57;;;;;;;;;4.20;4.20;;;;;10.53;39.17;99378.00;6067453;28;96282;-63
2023/04/03 09:06:06;;;;;;;;;4.25;3.25;;;;;10.41;39.72;99387.75;6050921;28;96293;-63
2023/04/03 09:09:16;;;;;;;;;7.00;7.00;;;;;10.39;39.57;99385.28;6022338;28;98959;-63
2023/04/03 09:12:25;;;;;;;;;6.00;5.00;;;;;10.36;38.83;99392.97;6043769;28;96301;-63
2023/04/03 09:15:31;;;;;;;;;5.00;5.00;;;;;10.29;39.10;99384.88;6043602;28;96686;-63
2023/04/03 09:18:49;;;;;;;;;6.00;6.00;;;;;10.29;39.55;99386.75;6043685;28;96495;-63
2023/04/03 09:21:53;;;;;;;;;5.40;5.00;;;;;10.26;39.64;99393.34;6043467;28;96341;-63
2023/04/03 09:25:01;;;;;;;;;6.40;6.00;;;;;10.12;39.86;99404.31;6043286;28;96391;-63
2023/04/03 09:28:09;;;;;;;;;4.50;4.00;;;;;9.77;40.20;99407.19;6045576;28;96310;-63
2023/04/03 09:31:21;;;;;;;;;8.00;7.00;;;;;9.71;40.91;99413.38;6049347;28;98200;-63
2023/04/03 09:34:28;;;;;;;;;4.00;4.00;;;;;9.53;41.32;99416.63;6048713;28;98403;-63
2023/04/03 09:37:40;;;;;;;;;8.40;7.80;;;;;9.41;42.74;99429.00;6049312;28;98386;-63
2023/04/03 09:40:46;;;;;;;;;6.00;5.00;;;;;9.38;43.49;99440.16;6049883;28;96225;-63
2023/04/03 09:43:54;;;;;;;;;5.40;5.00;;;;;9.30;44.24;99442.19;6066838;28;96401;-63
2023/04/03 09:47:00;;;;;;;;;5.80;5.80;;;;;9.22;44.74;99439.69;6048870;28;98405;-63
2023/04/03 09:50:20;;;;;;;;;5.40;4.80;;;;;9.16;44.16;99437.78;6066724;28;96319;-63
2023/04/03 09:53:32;;;;;;;;;6.20;5.80;;;;;9.09;44.52;99440.41;6066339;28;96313;-63
2023/04/03 09:56:36;;;;;;;;;6.00;6.00;;;;;8.99;45.01;99440.78;6066832;28;96253;-63
2023/04/03 09:59:46;;;;;;;;;8.00;6.80;;;;;8.94;44.36;99450.50;6064494;28;96046;-63
2023/04/03 10:02:55;;;;;;;;;5.00;5.00;;;;;8.98;45.06;99449.91;6075255;28;96284;-63
2023/04/03 10:05:59;;;;;;;;;6.00;5.60;;;;;8.92;44.29;99439.09;6073814;28;96437;-63
2023/04/03 10:09:06;;;;;;;;;6.60;5.80;;;;;9.07;44.68;99447.88;6076024;28;98372;-63
2023/04/03 10:12:11;;;;;;;;;8.00;7.00;;;;;9.17;44.15;99442.13;6094440;28;96769;-63
2023/04/03 10:15:16;;;;;;;;;11.50;10.50;;;;;9.16;42.65;99438.63;6094277;28;97068;-63
2023/04/03 10:18:33;;;;;;;;;7.40;7.00;;;;;9.38;41.98;99447.44;6094093;28;96396;-63
2023/04/03 10:21:45;;;;;;;;;5.00;5.00;;;;;9.50;41.95;99449.31;6087816;28;96363;-63
2023/04/03 10:25:01;;;;;;;;;8.00;7.60;;;;;9.49;41.24;99450.34;6083055;28;97702;-63
2023/04/03 10:28:11;;;;;;;;;7.75;7.50;;;;;9.40;40.54;99458.81;6070017;28;96261;-63
2023/04/03 10:31:20;;;;;;;;;6.00;6.00;;;;;9.41;40.87;99450.53;6068879;28;96861;-63
2023/04/03 10:34:29;;;;;;;;;5.00;4.80;;;;;9.29;40.73;99459.34;6070253;28;96301;-63
2023/04/03 10:37:44;;;;;;;;;6.40;6.00;;;;;9.30;41.50;99453.78;6052304;28;98334;-63
2023/04/03 10:40:57;;;;;;;;;9.00;9.00;;;;;9.42;42.21;99446.81;6052477;28;97514;-63
2023/04/03 10:44:14;;;;;;;;;8.00;7.60;;;;;9.47;41.37;99441.66;6070494;28;97342;-63
2023/04/03 10:47:24;;;;;;;;;5.00;5.00;;;;;9.56;40.91;99456.59;6092139;28;96631;-63
2023/04/03 10:50:39;;;;;;;;;7.00;7.00;;;;;9.65;40.82;99448.34;6067349;28;97498;-63
2023/04/03 10:53:51;;;;;;;;;4.00;4.00;;;;;9.69;40.22;99446.91;6062421;28;96838;-63
2023/04/03 10:56:57;;;;;;;;;8.00;8.00;;;;;9.73;40.31;99440.91;6047439;28;99056;-62
2023/04/03 11:00:20;;;;;;;;;6.60;6.60;;;;;9.68;39.63;99451.44;6057392;28;97180;-63
2023/04/03 11:03:32;;;;;;;;;8.00;7.25;;;;;9.84;40.09;99445.72;6039989;28;96674;-62
2023/04/03 11:06:40;;;;;;;;;8.00;7.40;;;;;9.82;41.06;99449.66;6047950;28;96807;-63
2023/04/03 11:09:47;;;;;;;;;9.40;9.40;;;;;9.81;39.89;99456.91;6065093;28;96316;-62
2023/04/03 11:12:57;;;;;;;;;8.00;8.00;;;;;9.78;40.91;99459.97;6041954;28;96919;-63
2023/04/03 11:16:01;;;;;;;;;9.40;9.00;;;;;9.77;42.56;99462.91;6065500;28;96426;-63
2023/04/03 11:19:15;;;;;;;;;8.00;8.00;;;;;9.79;41.34;99466.19;6066826;28;97217;-63
2023/04/03 11:22:26;;;;;;;;;9.20;8.20;;;;;9.80;39.57;99459.78;6033416;28;96781;-63
2023/04/03 11:25:32;;;;;;;;;8.00;7.00;;;;;10.00;39.38;99458.81;6068428;28;96685;-62
2023/04/03 11:28:37;;;;;;;;;7.00;7.00;;;;;10.38;38.26;99458.25;6068886;28;96908;-63
2023/04/03 11:31:59;;;;;;;;;7.00;7.00;;;;;10.92;36.80;99462.59;6067252;28;96337;-63
2023/04/03 11:35:07;;;;;;;;;8.00;8.00;;;;;11.89;36.63;99454.38;6050845;28;98020;-62
2023/04/03 11:38:20;;;;;;;;;6.60;6.00;;;;;12.64;35.54;99450.75;6043013;28;97987;-63
2023/04/03 11:41:28;;;;;;;;;10.25;10.00;;;;;13.16;33.53;99448.59;6058968;28;96408;-63
2023/04/03 11:44:36;;;;;;;;;6.80;6.00;;;;;13.50;33.50;99436.34;6045408;28;96954;-63
2023/04/03 11:47:47;;;;;;;;;8.75;8.75;;;;;13.58;32.83;99442.31;6045125;28;96746;-63
2023/04/03 11:50:51;;;;;;;;;9.00;9.00;;;;;13.40;33.49;99451.25;6044817;28;97421;-63
2023/04/03 11:54:35;;;;;;;;;6.00;6.00;;;;;13.31;33.48;99447.19;6038707;28;97609;-63
2023/04/03 11:58:05;;;;;;;;;7.40;6.40;;;;;13.00;32.64;99437.28;6042893;28;97388;-63
2023/04/03 12:01:10;;;;;;;;;9.50;8.00;;;;;13.18;33.59;99447.34;6059399;28;96374;-63
2023/04/03 12:04:15;;;;;;;;;6.00;6.00;;;;;13.63;32.81;99438.91;6044542;28;96675;-63
2023/04/03 12:07:20;;;;;;;;;8.00;7.00;;;;;13.70;31.75;99421.50;6044884;28;96481;-63
2023/04/03 12:10:25;;;;;;;;;8.50;8.50;;;;;13.62;31.25;99435.38;6058277;28;98472;-63
2023/04/03 12:13:35;;;;;;;;;6.00;6.00;;;;;13.37;31.76;99438.16;6043418;28;96393;-63
2023/04/03 12:16:45;;;;;;;;;5.75;5.75;;;;;13.20;31.42;99437.09;6042564;28;98452;-62
2023/04/03 12:19:49;;;;;;;;;5.00;4.00;;;;;13.14;31.19;99437.19;6044337;28;96403;-63
2023/04/03 12:23:23;;;;;;;;;6.60;6.00;;;;;13.18;30.88;99444.63;6041448;28;96419;-63
2023/04/03 12:26:33;;;;;;;;;6.00;6.00;;;;;13.15;30.55;99444.25;6043789;28;96394;-62
2023/04/03 12:29:56;;;;;;;;;4.20;4.00;;;;;12.92;31.07;99440.28;6041385;28;97274;-63
2023/04/03 12:33:17;;;;;;;;;5.00;4.60;;;;;12.95;30.43;99445.25;6043422;28;96506;-63
2023/04/03 12:36:33;;;;;;;;;6.00;5.20;;;;;12.99;30.88;99437.53;6048307;28;96324;-63
2023/04/03 12:39:52;;;;;;;;;5.00;5.00;;;;;13.08;30.32;99438.88;6066805;28;96298;-63
2023/04/03 12:43:21;;;;;;;;;7.60;7.00;;;;;12.62;29.00;99441.19;6065676;28;96952;-63
2023/04/03 12:46:35;;;;;;;;;5.50;5.50;;;;;12.98;30.41;99444.81;6064290;28;98543;-63
2023/04/03 12:49:41;;;;;;;;;5.50;4.00;;;;;13.21;28.63;99437.94;6033250;28;98395;-62
2023/04/03 12:52:48;;;;;;;;;5.00;5.00;;;;;13.68;28.55;99441.75;6049563;28;96608;-62
2023/04/03 12:55:55;;;;;;;;;3.00;3.00;;;;;13.83;27.67;99437.56;6049691;28;96266;-63
2023/04/03 13:02:28;;;;;;;;;7.00;6.75;;;;;13.52;28.63;99442.38;6307609;27;96147;-64
2023/04/03 13:05:33;;;;;;;;;5.80;4.80;;;;;13.51;28.87;99438.84;6255434;27;96938;-64
2023/04/03 13:08:49;;;;;;;;;3.80;3.80;;;;;13.72;29.10;99443.78;6275654;27;96549;-64
2023/04/03 13:11:59;;;;;;;;;6.00;6.00;;;;;13.68;28.99;99439.84;6276516;27;96669;-64
2023/04/03 13:15:12;;;;;;;;;6.00;5.40;;;;;13.77;28.47;99445.81;6263212;27;97533;-64
2023/04/03 13:18:27;;;;;;;;;4.00;3.20;;;;;13.65;28.10;99442.19;6249780;27;97098;-64
2023/04/03 13:21:33;;;;;;;;;4.00;4.00;;;;;13.56;28.98;99420.00;6281152;27;96761;-64
2023/04/03 13:24:39;;;;;;;;;4.00;4.00;;;;;13.59;28.76;99433.09;6281316;27;96563;-64
2023/04/03 13:27:44;;;;;;;;;7.00;7.00;;;;;13.59;28.21;99427.66;6263641;27;96642;-63
2023/04/03 13:30:57;;;;;;;;;3.00;3.00;;;;;13.60;28.48;99434.75;6251159;27;96785;-64
2023/04/03 13:34:08;;;;;;;;;6.00;6.00;;;;;13.76;28.17;99438.72;6233072;27;96556;-64
2023/04/03 13:37:22;;;;;;;;;8.00;7.60;;;;;13.91;27.43;99430.19;6240010;27;96318;-63
2023/04/03 13:40:25;;;;;;;;;5.60;5.00;;;;;14.15;27.93;99434.63;6257808;27;96725;-63
2023/04/03 13:43:38;;;;;;;;;6.00;6.00;;;;;14.45;27.43;99440.03;6254790;27;96510;-64
2023/04/03 13:46:45;;;;;;;;;3.60;3.40;;;;;14.73;26.01;99446.44;6256904;27;96593;-63
2023/04/03 13:50:03;;;;;;;;;7.00;6.00;;;;;14.77;25.15;99438.66;6232497;27;96855;-64
2023/04/03 13:53:14;;;;;;;;;5.60;5.00;;;;;14.46;25.93;99431.69;6239097;27;96206;-64
2023/04/03 13:56:25;;;;;;;;;6.25;6.25;;;;;14.18;25.68;99413.28;6251176;27;96524;-64
2023/04/03 13:59:31;;;;;;;;;6.00;6.00;;;;;14.45;28.27;99440.88;6256409;27;96430;-64
2023/04/03 14:02:35;;;;;;;;;5.20;5.20;;;;;14.61;27.47;99428.50;6246549;27;97753;-64
2023/04/03 14:05:39;;;;;;;;;5.00;4.00;;;;;14.63;27.24;99432.63;6230591;28;96546;-64
2023/04/03 14:08:44;;;;;;;;;5.00;4.00;;;;;14.70;27.18;99435.25;6235882;27;98778;-64
2023/04/03 14:11:50;;;;;;;;;6.00;6.00;;;;;14.67;27.24;99431.09;6248524;27;96266;-64
2023/04/03 14:14:54;;;;;;;;;4.40;4.40;;;;;14.35;26.86;99435.16;6222658;28;96659;-64
2023/04/03 14:17:58;;;;;;;;;6.00;6.00;;;;;14.42;28.14;99437.78;6221311;28;96852;-64
2023/04/03 14:21:32;;;;;;;;;6.60;6.60;;;;;14.42;27.58;99422.31;6239713;27;96375;-64
2023/04/03 14:24:35;;;;;;;;;7.00;6.25;;;;;14.42;27.69;99426.91;6238042;28;96703;-64
2023/04/03 14:27:41;;;;;;;;;6.67;6.00;;;;;14.53;27.11;99431.53;6228701;28;96932;-64
2023/04/03 14:30:46;;;;;;;;;9.00;8.00;;;;;14.10;26.59;99397.38;6204257;28;99867;-64
2023/04/03 14:33:49;;;;;;;;;7.20;6.60;;;;;14.13;27.48;99428.59;6239338;28;96376;-64
2023/04/03 14:36:54;;;;;;;;;5.00;5.00;;;;;14.13;27.79;99431.31;6234683;27;96734;-64
2023/04/03 14:39:59;;;;;;;;;6.40;5.60;;;;;14.09;28.63;99422.00;6232486;28;96421;-64
2023/04/03 14:43:03;;;;;;;;;5.00;5.00;;;;;13.98;28.55;99423.59;6232666;28;96576;-65
2023/04/03 14:46:12;;;;;;;;;8.00;8.00;;;;;13.87;28.11;99422.53;6223208;28;96320;-65
2023/04/03 14:49:20;;;;;;;;;6.40;6.00;;;;;13.71;28.73;99420.44;6214083;28;96785;-66
2023/04/03 14:52:27;;;;;;;;;7.00;6.00;;;;;13.53;28.55;99397.97;6236070;28;96727;-65